Main page
METAR-TAF:

METAR-TAF

Airports :

Norwich Airport

Norwich, England

latitude: 52-38N, longitude: 001-18E, elevation: 14 m

Current weather observation

The report was made 13 minutes ago, at 13:50 UTC
Wind 10 kt from the West/Southwest, varying between Southwest and West
Temperature 14°C
Humidity 67%
Pressure 1017 hPa
Visibility 10 km or more
Scattered clouds at a height of 3000 ft

METAR: EGSH 221350Z 25010KT 220V280 9999 SCT030 14/08 Q1017 NOSIG

Time: 15:03 (14:03 UTC)

Forecast

The report was made 3 hours and 5 minutes ago, at 10:58 UTC
Forecast valid from 22 at 12 UTC to 22 at 21 UTC
Wind 8 kt from the West/Southwest
Visibility 10 km or more
Few clouds at a height of 3000 ft
Probability 30%
from 22 at 14 UTC to 22 at 21 UTC
Visibility: 7000 m
Broken clouds at a height of 1400 ft
rain

TAF: EGSH 221058Z 2212/2221 24008KT 9999 FEW030 PROB30 2214/2221 7000 RA BKN014

Weather observations and forecasts of more than 4000 airports (METAR and TAF reports).

The available stations are represented by yellow and red dots on the map.

Hover mouse over dot to see the name of the station.

Then click to see weather observations and forecasts.

To change the map : click on the green buttons with a black cross to zoom in, on the green button with a dash to zoom out, or on the green arrows for adjacent maps.


METAR-TAF: